createdAt,value
2022-11-30T00:01:52.217Z,9.59
2022-11-30T00:04:20.838Z,9.60
2022-11-30T00:06:49.416Z,9.62
2022-11-30T00:09:17.949Z,9.63
2022-11-30T00:11:46.575Z,9.65
2022-11-30T00:14:15.245Z,9.63
2022-11-30T00:16:45.806Z,9.64
2022-11-30T00:19:14.427Z,9.65
2022-11-30T00:21:43.062Z,9.63
2022-11-30T00:24:11.725Z,9.64
2022-11-30T00:26:40.325Z,9.62
2022-11-30T00:29:08.920Z,9.61
2022-11-30T00:31:37.463Z,9.59
2022-11-30T00:34:08.049Z,9.59
2022-11-30T00:36:36.649Z,9.52
2022-11-30T00:39:05.830Z,9.54
2022-11-30T00:41:34.375Z,9.56
2022-11-30T00:44:02.964Z,9.57
2022-11-30T00:46:31.756Z,9.56
2022-11-30T00:49:00.466Z,9.56
2022-11-30T00:51:30.952Z,9.54
2022-11-30T00:53:59.600Z,9.54
2022-11-30T00:56:28.149Z,9.52
2022-11-30T00:58:56.760Z,9.52
2022-11-30T01:01:25.404Z,9.52
2022-11-30T01:03:54.238Z,9.51
2022-11-30T01:06:22.798Z,9.52
2022-11-30T01:08:53.338Z,9.53
2022-11-30T01:11:25.960Z,9.53
2022-11-30T01:13:56.558Z,9.55
2022-11-30T01:16:28.264Z,9.56
2022-11-30T01:18:57.953Z,9.58
2022-11-30T01:21:30.096Z,9.61
2022-11-30T01:24:00.660Z,9.63
2022-11-30T01:26:29.340Z,9.64
2022-11-30T01:28:58.180Z,9.64
2022-11-30T01:31:27.069Z,9.64
2022-11-30T01:33:57.119Z,9.66
2022-11-30T01:36:27.746Z,9.68
2022-11-30T01:38:59.990Z,9.68
2022-11-30T01:41:31.173Z,9.68
2022-11-30T01:44:30.839Z,9.67
2022-11-30T01:47:02.360Z,9.71
2022-11-30T01:49:35.750Z,9.71
2022-11-30T01:52:09.011Z,9.70
2022-11-30T01:54:46.843Z,9.68
2022-11-30T01:57:20.546Z,9.69
2022-11-30T01:59:50.880Z,9.71
2022-11-30T02:02:27.982Z,9.74
2022-11-30T02:04:56.879Z,9.74
2022-11-30T02:07:25.742Z,9.73
2022-11-30T02:09:56.293Z,9.76
2022-11-30T02:12:34.515Z,9.79
2022-11-30T02:15:10.730Z,9.79
2022-11-30T02:17:48.850Z,9.81
2022-11-30T02:20:57.488Z,9.79
2022-11-30T02:23:59.140Z,9.82
2022-11-30T02:27:04.342Z,9.81
2022-11-30T02:29:39.810Z,9.89
2022-11-30T02:32:13.698Z,9.91
2022-11-30T02:34:44.159Z,9.93
2022-11-30T02:37:15.564Z,9.92
2022-11-30T02:39:45.164Z,9.94
2022-11-30T02:42:14.933Z,9.96
2022-11-30T02:44:49.290Z,9.95
2022-11-30T02:47:27.085Z,9.89
2022-11-30T02:50:01.375Z,9.84
2022-11-30T02:52:32.916Z,9.80
2022-11-30T02:55:03.647Z,9.73
2022-11-30T02:57:32.377Z,9.67
2022-11-30T03:00:08.499Z,9.61
2022-11-30T03:02:37.147Z,9.54
2022-11-30T03:05:06.636Z,9.49
2022-11-30T03:07:35.622Z,9.42
2022-11-30T03:10:05.868Z,9.34
2022-11-30T03:12:34.578Z,9.29
2022-11-30T03:15:05.692Z,9.22
2022-11-30T03:17:34.466Z,9.18
2022-11-30T03:20:03.791Z,9.15
2022-11-30T03:22:32.446Z,9.14
2022-11-30T03:25:00.998Z,9.12
2022-11-30T03:27:29.533Z,9.13
2022-11-30T03:29:58.095Z,9.15
2022-11-30T03:32:30.362Z,9.18
2022-11-30T03:34:59.071Z,9.22
2022-11-30T03:37:27.721Z,9.23
2022-11-30T03:39:58.378Z,9.26
2022-11-30T03:42:27.260Z,9.29
2022-11-30T03:44:55.854Z,9.30
2022-11-30T03:47:24.446Z,9.32
2022-11-30T03:49:54.990Z,9.36
2022-11-30T03:52:23.569Z,9.37
2022-11-30T03:54:52.183Z,9.39
2022-11-30T03:57:20.933Z,9.39
2022-11-30T03:59:49.513Z,9.40
2022-11-30T04:02:18.084Z,9.43
2022-11-30T04:04:47.006Z,9.44
2022-11-30T04:07:17.816Z,9.47
2022-11-30T04:09:46.447Z,9.45
2022-11-30T04:12:15.067Z,9.46
2022-11-30T04:14:43.667Z,9.47
2022-11-30T04:17:12.291Z,9.50
2022-11-30T04:19:40.928Z,9.52
2022-11-30T04:22:09.537Z,9.53
2022-11-30T04:24:40.091Z,9.51
2022-11-30T04:27:08.685Z,9.52
2022-11-30T04:29:37.264Z,9.52
2022-11-30T04:32:06.017Z,9.53
2022-11-30T04:34:34.582Z,9.55
2022-11-30T04:37:03.209Z,9.58
2022-11-30T04:39:34.927Z,9.57
2022-11-30T04:42:06.032Z,9.57
2022-11-30T04:44:34.598Z,9.57
2022-11-30T04:47:03.156Z,9.60
2022-11-30T04:49:31.716Z,9.59
2022-11-30T04:52:00.282Z,9.58
2022-11-30T04:54:28.928Z,9.59
2022-11-30T04:56:57.522Z,9.59
2022-11-30T04:59:28.011Z,9.59
2022-11-30T05:01:56.755Z,9.59
2022-11-30T05:04:25.485Z,9.59
2022-11-30T05:06:54.109Z,9.58
2022-11-30T05:09:22.735Z,9.57
2022-11-30T05:11:51.299Z,9.57
2022-11-30T05:14:19.958Z,9.55
2022-11-30T05:16:51.603Z,9.57
2022-11-30T05:19:20.267Z,9.55
2022-11-30T05:21:48.915Z,9.57
2022-11-30T05:24:18.095Z,9.56
2022-11-30T05:26:46.737Z,9.57
2022-11-30T05:29:15.417Z,9.57
2022-11-30T05:31:44.063Z,9.58
2022-11-30T05:34:14.900Z,9.59
2022-11-30T05:36:43.514Z,9.57
2022-11-30T05:39:12.255Z,9.56
2022-11-30T05:41:40.915Z,9.54
2022-11-30T05:44:10.912Z,9.54
2022-11-30T05:46:41.076Z,9.53
2022-11-30T05:49:09.987Z,9.54
2022-11-30T05:51:42.111Z,9.54
2022-11-30T05:54:10.742Z,9.54
2022-11-30T05:56:39.341Z,9.52
2022-11-30T05:59:08.014Z,9.51
2022-11-30T06:01:36.677Z,9.50
2022-11-30T06:04:09.039Z,9.46
2022-11-30T06:06:37.677Z,9.44
2022-11-30T06:09:08.298Z,9.39
2022-11-30T06:11:39.982Z,9.37
2022-11-30T06:14:08.606Z,9.34
2022-11-30T06:16:40.626Z,9.31
2022-11-30T06:19:09.255Z,9.26
2022-11-30T06:21:37.857Z,9.20
2022-11-30T06:24:10.131Z,9.16
2022-11-30T06:26:39.152Z,9.11
2022-11-30T06:29:07.792Z,9.07
2022-11-30T06:31:36.452Z,9.04
2022-11-30T06:34:05.061Z,9.01
2022-11-30T06:36:36.232Z,8.98
2022-11-30T06:39:06.151Z,8.96
2022-11-30T06:41:36.736Z,8.94
2022-11-30T06:44:10.052Z,8.94
2022-11-30T06:46:38.683Z,8.96
2022-11-30T06:49:07.563Z,8.97
2022-11-30T06:51:36.833Z,8.99
2022-11-30T06:54:05.903Z,9.01
2022-11-30T06:56:36.566Z,9.02
2022-11-30T06:59:05.294Z,9.06
2022-11-30T07:01:34.040Z,9.08
2022-11-30T07:04:02.668Z,9.09
2022-11-30T07:06:31.357Z,9.09
2022-11-30T07:08:59.925Z,9.12
2022-11-30T07:11:28.540Z,9.11
2022-11-30T07:13:59.095Z,9.10
2022-11-30T07:16:27.805Z,9.11
2022-11-30T07:18:56.434Z,9.14
2022-11-30T07:21:25.405Z,9.15
2022-11-30T07:24:07.106Z,9.18
2022-11-30T07:26:40.852Z,9.18
2022-11-30T07:29:13.808Z,9.18
2022-11-30T07:31:42.521Z,9.20
2022-11-30T07:34:12.741Z,9.20
2022-11-30T07:36:41.312Z,9.22
2022-11-30T07:39:11.151Z,9.22
2022-11-30T07:41:43.917Z,9.22
2022-11-30T07:44:14.723Z,9.23
2022-11-30T07:46:43.681Z,9.21
2022-11-30T07:49:12.852Z,9.21
2022-11-30T07:51:41.615Z,9.21
2022-11-30T07:54:10.284Z,9.20
2022-11-30T07:56:38.908Z,9.20
2022-11-30T07:59:07.547Z,9.21
2022-11-30T08:01:38.304Z,9.23
2022-11-30T08:04:07.368Z,9.22
2022-11-30T08:06:36.078Z,9.20
2022-11-30T08:09:06.609Z,9.19
2022-11-30T08:11:37.351Z,9.19
2022-11-30T08:14:06.665Z,9.23
2022-11-30T08:16:39.486Z,9.25
2022-11-30T08:19:08.426Z,9.30
2022-11-30T08:21:37.488Z,9.36
2022-11-30T08:24:07.089Z,9.40
2022-11-30T08:26:36.183Z,9.43
2022-11-30T08:29:04.912Z,9.46
2022-11-30T08:31:35.669Z,9.50
2022-11-30T08:34:09.292Z,9.53
2022-11-30T08:36:38.067Z,9.56
2022-11-30T08:39:08.630Z,9.60
2022-11-30T08:41:38.633Z,9.64
2022-11-30T08:44:07.969Z,9.67
2022-11-30T08:46:53.452Z,9.70
2022-11-30T08:49:25.406Z,9.74
2022-11-30T08:54:47.609Z,9.76
2022-11-30T08:57:17.734Z,9.77
2022-11-30T08:59:46.547Z,9.80
2022-11-30T09:02:19.035Z,9.85
2022-11-30T09:04:51.315Z,9.89
2022-11-30T09:07:20.124Z,9.87
2022-11-30T09:09:49.134Z,9.92
2022-11-30T09:12:17.791Z,9.95
2022-11-30T09:14:50.794Z,10.03
2022-11-30T09:17:22.785Z,10.05
2022-11-30T09:19:54.090Z,10.06
2022-11-30T09:22:22.819Z,10.08
2022-11-30T09:24:51.528Z,10.14
2022-11-30T09:27:20.283Z,10.20
2022-11-30T09:29:48.900Z,10.28
2022-11-30T09:32:17.515Z,10.31
2022-11-30T09:34:46.461Z,10.37
2022-11-30T09:37:17.194Z,10.41
2022-11-30T09:39:45.796Z,10.52
2022-11-30T09:42:44.866Z,10.60
2022-11-30T09:45:20.607Z,10.69
2022-11-30T09:48:09.943Z,10.71
2022-11-30T09:50:44.455Z,10.77
2022-11-30T09:53:28.954Z,10.82
2022-11-30T09:56:00.295Z,10.90
2022-11-30T09:58:40.167Z,10.87
2022-11-30T10:01:19.163Z,10.91
2022-11-30T10:03:48.605Z,10.97
2022-11-30T10:06:27.723Z,11.01
2022-11-30T10:09:31.917Z,11.03
2022-11-30T10:12:07.619Z,11.08
2022-11-30T10:15:07.035Z,11.08
2022-11-30T10:17:47.355Z,11.16
2022-11-30T10:20:39.180Z,11.16
2022-11-30T10:23:27.288Z,11.20
2022-11-30T10:26:01.668Z,11.28
2022-11-30T10:28:47.590Z,11.32
2022-11-30T10:31:18.023Z,11.37
2022-11-30T10:33:50.512Z,11.44
2022-11-30T10:36:45.783Z,11.50
2022-11-30T10:39:22.164Z,11.56
2022-11-30T10:41:57.026Z,11.63
2022-11-30T10:44:30.059Z,11.69
2022-11-30T10:47:04.580Z,11.72
2022-11-30T10:49:34.532Z,11.78
2022-11-30T10:52:08.217Z,11.90
2022-11-30T10:54:38.419Z,12.07
2022-11-30T10:57:09.393Z,12.20
2022-11-30T10:59:45.951Z,12.41
2022-11-30T11:02:42.354Z,12.54
2022-11-30T11:05:21.164Z,12.83
2022-11-30T11:07:57.835Z,13.14
2022-11-30T11:10:35.861Z,13.21
2022-11-30T11:13:07.354Z,13.19
2022-11-30T11:15:36.810Z,13.10
2022-11-30T11:18:26.087Z,12.92
2022-11-30T11:21:07.627Z,12.88
2022-11-30T11:23:39.592Z,12.77
2022-11-30T11:26:17.183Z,12.76
2022-11-30T11:28:51.061Z,12.67
2022-11-30T11:31:35.045Z,12.65
2022-11-30T11:34:04.103Z,12.62
2022-11-30T11:36:36.188Z,12.59
2022-11-30T11:39:25.562Z,12.60
2022-11-30T11:41:54.564Z,12.50
2022-11-30T11:44:27.639Z,12.49
2022-11-30T11:46:59.373Z,12.40
2022-11-30T11:49:30.416Z,12.52
2022-11-30T11:52:04.086Z,13.02
2022-11-30T11:54:38.216Z,13.43
2022-11-30T11:57:13.208Z,13.53
2022-11-30T11:59:53.559Z,13.50
2022-11-30T12:02:36.249Z,13.60
2022-11-30T12:05:12.255Z,13.60
2022-11-30T12:07:47.733Z,13.47
2022-11-30T12:13:22.875Z,13.43
2022-11-30T12:16:08.310Z,13.14
2022-11-30T12:18:51.267Z,13.03
2022-11-30T12:21:33.241Z,12.88
2022-11-30T12:24:35.410Z,12.67
2022-11-30T12:27:17.964Z,12.72
2022-11-30T12:30:00.185Z,12.68
2022-11-30T12:32:51.165Z,12.61
2022-11-30T12:35:36.506Z,12.58
2022-11-30T12:38:20.760Z,12.49
2022-11-30T12:40:58.153Z,12.37
2022-11-30T12:43:40.765Z,12.21
2022-11-30T12:46:21.370Z,12.01
2022-11-30T12:49:09.978Z,11.81
2022-11-30T12:51:45.282Z,11.73
2022-11-30T12:54:22.984Z,11.71
2022-11-30T12:56:58.351Z,11.75
2022-11-30T12:59:39.198Z,11.79
2022-11-30T13:02:37.688Z,11.74
2022-11-30T13:05:12.364Z,11.73
2022-11-30T13:07:46.087Z,11.69
2022-11-30T13:10:26.687Z,11.64
2022-11-30T13:12:57.579Z,11.62
2022-11-30T13:15:30.720Z,11.57
2022-11-30T13:18:01.166Z,11.54
2022-11-30T13:20:39.935Z,11.44
2022-11-30T13:23:15.540Z,11.46
2022-11-30T13:26:08.420Z,11.43
2022-11-30T13:29:00.962Z,11.41
2022-11-30T13:31:37.087Z,11.44
2022-11-30T13:34:05.752Z,11.32
2022-11-30T13:36:40.098Z,11.33
2022-11-30T13:39:24.994Z,11.29
2022-11-30T13:42:37.370Z,11.26
2022-11-30T13:45:38.098Z,11.26
2022-11-30T13:48:33.147Z,11.18
2022-11-30T13:51:02.250Z,11.18
2022-11-30T13:53:35.276Z,11.08
2022-11-30T13:56:23.899Z,11.03
2022-11-30T13:59:35.633Z,10.96
2022-11-30T14:04:45.477Z,10.60
2022-11-30T14:07:36.763Z,10.55
2022-11-30T14:10:26.534Z,10.61
2022-11-30T14:13:05.385Z,10.57
2022-11-30T14:15:57.580Z,10.59
2022-11-30T14:18:46.195Z,10.41
2022-11-30T14:21:24.534Z,10.47
2022-11-30T14:24:00.370Z,10.45
2022-11-30T14:26:37.466Z,10.42
2022-11-30T14:29:20.039Z,10.37
2022-11-30T14:31:57.723Z,10.33
2022-11-30T14:34:31.881Z,10.28
2022-11-30T14:37:04.672Z,10.25
2022-11-30T14:39:36.868Z,10.19
2022-11-30T14:42:23.375Z,10.15
2022-11-30T14:44:55.225Z,10.14
2022-11-30T14:47:25.770Z,9.99
2022-11-30T14:49:56.525Z,10.03
2022-11-30T14:52:50.184Z,9.99
2022-11-30T14:55:32.497Z,9.93
2022-11-30T14:58:16.422Z,9.91
2022-11-30T15:00:48.541Z,9.85
2022-11-30T15:03:26.284Z,9.79
2022-11-30T15:05:58.382Z,9.73
2022-11-30T15:08:36.400Z,9.68
2022-11-30T15:11:08.295Z,9.64
2022-11-30T15:13:40.818Z,9.54
2022-11-30T15:16:22.038Z,9.53
2022-11-30T15:18:51.793Z,9.49
2022-11-30T15:21:23.822Z,9.42
2022-11-30T15:23:53.882Z,9.38
2022-11-30T15:26:28.550Z,9.29
2022-11-30T15:29:01.547Z,9.24
2022-11-30T15:31:38.278Z,9.17
2022-11-30T15:34:08.570Z,9.11
2022-11-30T15:36:38.947Z,9.03
2022-11-30T15:39:16.291Z,9.00
2022-11-30T15:41:45.002Z,8.97
2022-11-30T15:44:26.716Z,8.87
2022-11-30T15:47:02.564Z,8.85
2022-11-30T15:49:33.485Z,8.81
2022-11-30T15:52:08.428Z,8.75
2022-11-30T15:54:52.063Z,8.69
2022-11-30T15:57:22.304Z,8.63
2022-11-30T16:00:10.881Z,8.59
2022-11-30T16:02:41.550Z,8.52
2022-11-30T16:05:27.637Z,8.48
2022-11-30T16:07:59.355Z,8.44
2022-11-30T16:10:34.214Z,8.41
2022-11-30T16:13:03.643Z,8.36
2022-11-30T16:15:35.450Z,8.35
2022-11-30T16:18:20.826Z,8.29
2022-11-30T16:20:53.522Z,8.28
2022-11-30T16:26:03.190Z,8.25
2022-11-30T16:28:39.907Z,8.24
2022-11-30T16:31:15.399Z,8.21
2022-11-30T16:33:44.492Z,8.19
2022-11-30T16:36:18.190Z,8.16
2022-11-30T16:38:50.029Z,8.12
2022-11-30T16:41:22.606Z,8.02
2022-11-30T16:43:53.422Z,8.07
2022-11-30T16:46:25.204Z,8.03
2022-11-30T16:48:54.446Z,8.02
2022-11-30T16:51:26.664Z,7.99
2022-11-30T16:53:55.847Z,7.99
2022-11-30T16:56:26.841Z,7.96
2022-11-30T16:58:55.699Z,7.92
2022-11-30T17:01:34.534Z,7.90
2022-11-30T17:04:14.049Z,7.88
2022-11-30T17:06:44.010Z,7.86
2022-11-30T17:09:17.595Z,7.84
2022-11-30T17:11:49.774Z,7.80
2022-11-30T17:14:19.283Z,7.77
2022-11-30T17:16:48.209Z,7.74
